createdAt,value
2023-03-02T00:01:30.762Z,101094.78
2023-03-02T00:03:59.458Z,101098.88
2023-03-02T00:06:28.319Z,101095.25
2023-03-02T00:08:55.883Z,101100.19
2023-03-02T00:11:22.900Z,101101.00
2023-03-02T00:13:49.674Z,101101.72
2023-03-02T00:16:16.717Z,101106.56
2023-03-02T00:18:43.533Z,101105.69
2023-03-02T00:21:10.711Z,101104.81
2023-03-02T00:23:38.454Z,101114.94
2023-03-02T00:26:06.269Z,101113.09
2023-03-02T00:28:33.981Z,101114.78
2023-03-02T00:31:04.493Z,101113.09
2023-03-02T00:33:32.840Z,101103.59
2023-03-02T00:35:59.727Z,101100.00
2023-03-02T00:38:27.754Z,101099.00
2023-03-02T00:40:56.209Z,101104.03
2023-03-02T00:43:27.426Z,101101.41
2023-03-02T00:45:55.358Z,101098.94
2023-03-02T00:48:22.561Z,101101.41
2023-03-02T00:50:49.471Z,101095.25
2023-03-02T00:53:18.006Z,101094.34
2023-03-02T00:55:56.289Z,101098.50
2023-03-02T00:58:26.553Z,101096.75
2023-03-02T01:00:54.878Z,101092.53
2023-03-02T01:03:22.470Z,101090.59
2023-03-02T01:05:49.697Z,101089.63
2023-03-02T01:08:16.475Z,101088.84
2023-03-02T01:10:43.456Z,101083.13
2023-03-02T01:13:10.218Z,101085.91
2023-03-02T01:15:37.241Z,101080.97
2023-03-02T01:18:04.165Z,101074.97
2023-03-02T01:20:31.270Z,101082.91
2023-03-02T01:22:58.242Z,101082.91
2023-03-02T01:25:25.263Z,101086.34
2023-03-02T01:27:52.221Z,101085.72
2023-03-02T01:30:19.078Z,101081.38
2023-03-02T01:32:46.127Z,101077.94
2023-03-02T01:35:14.012Z,101073.72
2023-03-02T01:37:40.921Z,101069.31
2023-03-02T01:40:09.241Z,101072.69
2023-03-02T01:42:40.800Z,101074.69
2023-03-02T01:45:47.627Z,101067.97
2023-03-02T01:48:27.282Z,101059.06
2023-03-02T01:50:54.699Z,101058.72
2023-03-02T01:53:23.698Z,101066.31
2023-03-02T01:55:51.309Z,101071.50
2023-03-02T01:58:18.379Z,101069.84
2023-03-02T02:00:45.782Z,101066.56
2023-03-02T02:03:21.019Z,101059.50
2023-03-02T02:06:04.427Z,101065.97
2023-03-02T02:08:31.361Z,101059.44
2023-03-02T02:10:58.601Z,101061.44
2023-03-02T02:13:25.880Z,101054.91
2023-03-02T02:15:52.678Z,101053.56
2023-03-02T02:18:19.597Z,101047.34
2023-03-02T02:20:55.778Z,101046.09
2023-03-02T02:23:48.122Z,101051.66
2023-03-02T02:26:23.459Z,101045.91
2023-03-02T02:29:14.800Z,101047.91
2023-03-02T02:31:51.950Z,101047.22
2023-03-02T02:34:32.066Z,101053.44
2023-03-02T02:37:05.777Z,101048.31
2023-03-02T02:39:35.499Z,101046.78
2023-03-02T02:42:05.496Z,101049.22
2023-03-02T02:44:33.284Z,101046.53
2023-03-02T02:47:00.319Z,101046.72
2023-03-02T02:49:38.798Z,101044.91
2023-03-02T02:52:06.617Z,101036.31
2023-03-02T02:54:35.097Z,101039.69
2023-03-02T02:57:03.686Z,101039.69
2023-03-02T02:59:37.895Z,101049.75
2023-03-02T03:02:05.081Z,101040.31
2023-03-02T03:04:32.707Z,101041.84
2023-03-02T03:07:02.584Z,101040.72
2023-03-02T03:09:30.430Z,101045.78
2023-03-02T03:12:14.265Z,101043.91
2023-03-02T03:14:41.934Z,101043.91
2023-03-02T03:17:12.976Z,101037.84
2023-03-02T03:19:47.598Z,101037.84
2023-03-02T03:22:16.573Z,101030.00
2023-03-02T03:24:46.045Z,101028.06
2023-03-02T03:27:15.891Z,101033.28
2023-03-02T03:29:45.735Z,101030.63
2023-03-02T03:32:14.127Z,101022.09
2023-03-02T03:34:41.712Z,101024.75
2023-03-02T03:37:18.589Z,101034.16
2023-03-02T03:39:46.476Z,101023.06
2023-03-02T03:42:13.772Z,101026.31
2023-03-02T03:44:40.797Z,101026.31
2023-03-02T03:47:07.816Z,101023.88
2023-03-02T03:49:34.988Z,101020.41
2023-03-02T03:52:03.904Z,101016.84
2023-03-02T03:54:31.366Z,101023.63
2023-03-02T03:56:59.012Z,101017.63
2023-03-02T03:59:27.228Z,101024.31
2023-03-02T04:02:00.290Z,101013.22
2023-03-02T04:04:34.445Z,101019.16
2023-03-02T04:07:06.411Z,101011.41
2023-03-02T04:09:37.938Z,101016.25
2023-03-02T04:12:09.200Z,101011.63
2023-03-02T04:14:37.745Z,101005.22
2023-03-02T04:17:05.608Z,101010.81
2023-03-02T04:19:35.606Z,101008.69
2023-03-02T04:22:04.325Z,101011.72
2023-03-02T04:24:32.763Z,101013.88
2023-03-02T04:27:02.590Z,101012.56
2023-03-02T04:29:32.437Z,101011.28
2023-03-02T04:32:01.675Z,101010.94
2023-03-02T04:34:30.312Z,101011.56
2023-03-02T04:36:57.507Z,101004.59
2023-03-02T04:39:24.496Z,101003.63
2023-03-02T04:41:53.350Z,101005.13
2023-03-02T04:44:20.520Z,101004.09
2023-03-02T04:46:48.689Z,101004.78
2023-03-02T04:49:17.202Z,101003.66
2023-03-02T04:51:45.578Z,101001.22
2023-03-02T04:54:18.613Z,100998.72
2023-03-02T04:56:48.648Z,101003.22
2023-03-02T04:59:16.844Z,100995.91
2023-03-02T05:01:44.583Z,101003.09
2023-03-02T05:04:12.024Z,101001.50
2023-03-02T05:06:39.319Z,101000.72
2023-03-02T05:09:06.671Z,101006.53
2023-03-02T05:11:33.846Z,101000.47
2023-03-02T05:14:04.508Z,101005.56
2023-03-02T05:16:34.445Z,101002.22
2023-03-02T05:19:02.469Z,101005.03
2023-03-02T05:21:30.479Z,101006.88
2023-03-02T05:23:57.906Z,101005.28
2023-03-02T05:26:24.743Z,101003.63
2023-03-02T05:28:53.965Z,101012.31
2023-03-02T05:31:28.457Z,101007.31
2023-03-02T05:33:55.422Z,101008.34
2023-03-02T05:36:23.403Z,101006.59
2023-03-02T05:38:50.286Z,101003.22
2023-03-02T05:41:18.068Z,101007.53
2023-03-02T05:43:44.930Z,101005.09
2023-03-02T05:46:11.982Z,101004.34
2023-03-02T05:48:38.814Z,100990.22
2023-03-02T05:51:05.962Z,100999.13
2023-03-02T05:53:32.718Z,100989.06
2023-03-02T05:55:59.518Z,100991.16
2023-03-02T05:58:26.395Z,100987.09
2023-03-02T06:00:53.270Z,100985.66
2023-03-02T06:03:20.364Z,100990.06
2023-03-02T06:05:51.095Z,100987.66
2023-03-02T06:08:19.167Z,100987.91
2023-03-02T06:10:46.037Z,100991.50
2023-03-02T06:13:12.978Z,100990.78
2023-03-02T06:15:40.695Z,100989.41
2023-03-02T06:18:07.514Z,100988.84
2023-03-02T06:20:34.504Z,100983.97
2023-03-02T06:23:01.280Z,100979.19
2023-03-02T06:25:28.505Z,100980.28
2023-03-02T06:27:55.356Z,100989.09
2023-03-02T06:30:25.233Z,100983.41
2023-03-02T06:32:52.694Z,100988.91
2023-03-02T06:35:19.968Z,100986.56
2023-03-02T06:37:47.005Z,100984.34
2023-03-02T06:40:14.409Z,100978.72
2023-03-02T06:42:42.286Z,100984.16
2023-03-02T06:45:10.604Z,100988.75
2023-03-02T06:47:37.499Z,100989.97
2023-03-02T06:50:05.214Z,100988.50
2023-03-02T06:52:32.214Z,100981.13
2023-03-02T06:54:59.208Z,100985.66
2023-03-02T06:57:33.621Z,100980.81
2023-03-02T07:00:02.436Z,100988.00
2023-03-02T07:02:29.400Z,100982.44
2023-03-02T07:04:56.352Z,100981.84
2023-03-02T07:07:23.333Z,100967.66
2023-03-02T07:09:50.201Z,100970.50
2023-03-02T07:12:17.025Z,100978.53
2023-03-02T07:14:43.904Z,100978.72
2023-03-02T07:17:10.886Z,100979.16
2023-03-02T07:19:40.720Z,100978.78
2023-03-02T07:22:07.906Z,100975.84
2023-03-02T07:24:34.986Z,100978.00
2023-03-02T07:27:01.984Z,100982.66
2023-03-02T07:29:28.959Z,100977.00
2023-03-02T07:31:57.457Z,100984.22
2023-03-02T07:34:25.044Z,100982.97
2023-03-02T07:36:52.678Z,100978.97
2023-03-02T07:39:20.097Z,100973.38
2023-03-02T07:41:47.137Z,100976.47
2023-03-02T07:44:14.450Z,100979.47
2023-03-02T07:46:41.712Z,100975.75
2023-03-02T07:49:08.659Z,100975.22
2023-03-02T07:51:35.647Z,100983.31
2023-03-02T07:54:05.076Z,100978.44
2023-03-02T07:56:32.116Z,100972.66
2023-03-02T07:58:59.149Z,100975.38
2023-03-02T08:01:26.323Z,100972.94
2023-03-02T08:03:53.542Z,100978.38
2023-03-02T08:06:20.710Z,100983.59
2023-03-02T08:08:47.892Z,100971.88
2023-03-02T08:11:17.459Z,100971.31
2023-03-02T08:13:45.411Z,100976.72
2023-03-02T08:16:14.358Z,100964.06
2023-03-02T08:18:42.035Z,100968.66
2023-03-02T08:21:18.050Z,100965.47
2023-03-02T08:23:45.741Z,100966.50
2023-03-02T08:26:15.851Z,100966.50
2023-03-02T08:28:44.564Z,100962.31
2023-03-02T08:31:12.413Z,100964.97
2023-03-02T08:33:39.998Z,100960.81
2023-03-02T08:36:09.640Z,100955.16
2023-03-02T08:38:36.974Z,100956.13
2023-03-02T08:41:06.757Z,100966.53
2023-03-02T08:43:34.627Z,100962.44
2023-03-02T08:46:02.389Z,100956.59
2023-03-02T08:48:29.932Z,100959.47
2023-03-02T08:51:02.885Z,100950.34
2023-03-02T08:53:32.530Z,100960.81
2023-03-02T08:55:59.650Z,100957.19
2023-03-02T08:58:26.691Z,100963.97
2023-03-02T09:00:54.275Z,100961.50
2023-03-02T09:03:21.870Z,100960.88
2023-03-02T09:05:49.173Z,100962.72
2023-03-02T09:08:16.111Z,100961.97
2023-03-02T09:10:43.214Z,100963.59
2023-03-02T09:13:10.249Z,100965.00
2023-03-02T09:15:37.210Z,100960.81
2023-03-02T09:18:04.608Z,100956.69
2023-03-02T09:20:32.278Z,100959.41
2023-03-02T09:22:59.508Z,100955.41
2023-03-02T09:25:26.518Z,100947.06
2023-03-02T09:27:53.445Z,100947.09
2023-03-02T09:30:20.482Z,100948.72
2023-03-02T09:32:49.229Z,100946.97
2023-03-02T09:35:16.481Z,100947.72
2023-03-02T09:37:44.578Z,100952.63
2023-03-02T09:40:21.918Z,100950.94
2023-03-02T09:43:00.573Z,100951.63
2023-03-02T09:46:07.384Z,100954.13
2023-03-02T09:49:14.274Z,100955.06
2023-03-02T09:51:51.055Z,100949.22
2023-03-02T09:54:21.761Z,100949.97
2023-03-02T09:56:50.973Z,100948.41
2023-03-02T09:59:26.735Z,100952.66
2023-03-02T10:02:01.529Z,100947.47
2023-03-02T10:04:34.173Z,100946.53
2023-03-02T10:07:16.850Z,100950.88
2023-03-02T10:09:44.248Z,100944.03
2023-03-02T10:12:37.650Z,100951.69
2023-03-02T10:15:13.229Z,100945.66
2023-03-02T10:18:11.152Z,100962.13
2023-03-02T10:21:03.529Z,100956.25
2023-03-02T10:23:57.423Z,100952.03
2023-03-02T10:26:38.128Z,100950.41
2023-03-02T10:29:28.870Z,100942.69
2023-03-02T10:32:01.488Z,100944.53
2023-03-02T10:34:30.534Z,100943.81
2023-03-02T10:36:58.166Z,100946.59
2023-03-02T10:39:25.250Z,100944.38
2023-03-02T10:42:05.274Z,100946.34
2023-03-02T10:44:38.583Z,100942.22
2023-03-02T10:47:07.671Z,100947.63
2023-03-02T10:49:39.499Z,100938.31
2023-03-02T10:52:10.168Z,100936.84
2023-03-02T10:54:37.191Z,100940.88
2023-03-02T10:57:13.434Z,100933.50
2023-03-02T10:59:45.739Z,100934.19
2023-03-02T11:02:17.069Z,100941.88
2023-03-02T11:04:44.387Z,100934.38
2023-03-02T11:07:19.115Z,100942.22
2023-03-02T11:10:07.234Z,100942.22
2023-03-02T11:12:37.469Z,100934.72
2023-03-02T11:15:25.497Z,100940.19
2023-03-02T11:17:57.189Z,100931.50
2023-03-02T11:20:28.469Z,100931.44
2023-03-02T11:23:20.948Z,100930.59
2023-03-02T11:25:54.860Z,100923.59
2023-03-02T11:28:53.228Z,100927.69
2023-03-02T11:31:44.408Z,100919.13
2023-03-02T11:34:36.791Z,100922.47
2023-03-02T11:37:29.998Z,100928.31
2023-03-02T11:40:05.428Z,100915.88
2023-03-02T11:42:38.726Z,100914.09
2023-03-02T11:45:30.450Z,100904.50
2023-03-02T11:48:07.468Z,100907.97
2023-03-02T11:50:38.150Z,100906.25
2023-03-02T11:53:10.535Z,100899.56
2023-03-02T11:55:44.837Z,100901.56
2023-03-02T11:58:18.916Z,100901.69
2023-03-02T12:00:47.177Z,100891.31
2023-03-02T12:03:39.682Z,100893.69
2023-03-02T12:06:25.447Z,100882.75
2023-03-02T12:08:55.824Z,100889.00
2023-03-02T12:11:34.256Z,100890.09
2023-03-02T12:14:04.611Z,100883.38
2023-03-02T12:16:41.317Z,100883.34
2023-03-02T12:19:28.693Z,100881.53
2023-03-02T12:22:02.395Z,100880.44
2023-03-02T12:24:34.514Z,100871.00
2023-03-02T12:27:26.164Z,100864.25
2023-03-02T12:30:26.381Z,100856.59
2023-03-02T12:33:17.095Z,100864.50
2023-03-02T12:35:44.395Z,100857.72
2023-03-02T12:38:32.100Z,100855.75
2023-03-02T12:41:21.817Z,100859.03
2023-03-02T12:44:01.292Z,100857.31
2023-03-02T12:46:34.450Z,100862.44
2023-03-02T12:49:27.917Z,100852.84
2023-03-02T12:51:57.560Z,100850.34
2023-03-02T12:54:27.313Z,100844.44
2023-03-02T12:57:15.136Z,100848.72
2023-03-02T12:59:42.836Z,100849.47
2023-03-02T13:02:21.781Z,100843.31
2023-03-02T13:04:57.348Z,100830.50
2023-03-02T13:07:30.714Z,100827.16
2023-03-02T13:09:59.160Z,100818.66
2023-03-02T13:12:28.456Z,100823.38
2023-03-02T13:14:59.405Z,100820.09
2023-03-02T13:17:31.264Z,100820.44
2023-03-02T13:20:00.209Z,100816.03
2023-03-02T13:22:28.512Z,100813.38
2023-03-02T13:25:02.377Z,100810.00
2023-03-02T13:27:30.133Z,100812.84
2023-03-02T13:30:09.553Z,100809.44
2023-03-02T13:32:40.211Z,100807.69
2023-03-02T13:35:18.454Z,100807.69
2023-03-02T13:37:45.648Z,100797.41
2023-03-02T13:40:34.593Z,100804.25
2023-03-02T13:43:01.695Z,100792.81
2023-03-02T13:45:30.930Z,100797.81
2023-03-02T13:47:59.509Z,100794.16
2023-03-02T13:50:31.638Z,100794.78
2023-03-02T13:53:05.609Z,100783.38
2023-03-02T13:55:33.567Z,100776.34
2023-03-02T13:58:00.921Z,100785.66
2023-03-02T14:00:33.214Z,100782.19
2023-03-02T14:03:05.706Z,100780.47
2023-03-02T14:05:35.874Z,100779.69
2023-03-02T14:08:10.186Z,100764.25
2023-03-02T14:10:39.211Z,100772.88
2023-03-02T14:13:09.667Z,100771.09
2023-03-02T14:15:42.438Z,100771.03
2023-03-02T14:18:28.488Z,100770.78
2023-03-02T14:20:56.626Z,100762.28
2023-03-02T14:23:27.638Z,100758.84
2023-03-02T14:25:56.151Z,100752.00
2023-03-02T14:28:27.269Z,100747.56
2023-03-02T14:30:56.510Z,100741.50
2023-03-02T14:33:24.591Z,100744.78
2023-03-02T14:35:57.010Z,100735.38
2023-03-02T14:38:25.467Z,100728.50
2023-03-02T14:40:52.586Z,100739.75
2023-03-02T14:43:21.341Z,100731.81
2023-03-02T14:45:48.610Z,100735.91
2023-03-02T14:48:16.071Z,100736.59
2023-03-02T14:50:45.910Z,100726.25
2023-03-02T14:53:23.609Z,100724.56
2023-03-02T14:55:50.602Z,100728.78
2023-03-02T14:58:20.271Z,100723.34
2023-03-02T15:00:48.646Z,100716.22
2023-03-02T15:03:29.410Z,100710.88
2023-03-02T15:06:01.357Z,100715.06
2023-03-02T15:08:29.568Z,100724.25
2023-03-02T15:10:56.583Z,100719.75
2023-03-02T15:13:23.596Z,100718.69
2023-03-02T15:15:50.599Z,100712.41
2023-03-02T15:18:19.986Z,100714.81
2023-03-02T15:20:47.048Z,100710.44
2023-03-02T15:23:14.180Z,100711.91
2023-03-02T15:25:41.064Z,100707.34
2023-03-02T15:28:07.974Z,100703.69
2023-03-02T15:30:34.850Z,100698.34
2023-03-02T15:33:01.788Z,100699.09
2023-03-02T15:35:29.602Z,100694.66
2023-03-02T15:37:58.424Z,100691.16
2023-03-02T15:40:25.898Z,100692.69
2023-03-02T15:42:53.240Z,100683.09
2023-03-02T15:45:20.448Z,100694.22
2023-03-02T15:47:47.485Z,100677.75
2023-03-02T15:50:14.570Z,100688.53
2023-03-02T15:52:42.045Z,100682.13
2023-03-02T15:55:09.429Z,100675.78
2023-03-02T15:57:38.580Z,100683.94
2023-03-02T16:00:06.261Z,100681.84
2023-03-02T16:02:33.119Z,100680.56
2023-03-02T16:05:00.110Z,100667.38
2023-03-02T16:07:26.995Z,100678.28
2023-03-02T16:09:53.906Z,100668.75
2023-03-02T16:12:23.472Z,100673.72
2023-03-02T16:14:50.439Z,100673.81
2023-03-02T16:17:20.670Z,100671.38
2023-03-02T16:19:47.542Z,100665.59
2023-03-02T16:22:14.649Z,100670.69
2023-03-02T16:24:41.995Z,100674.16
2023-03-02T16:27:09.154Z,100671.66
2023-03-02T16:29:36.175Z,100666.66
2023-03-02T16:32:03.336Z,100672.66
2023-03-02T16:34:30.313Z,100674.31
2023-03-02T16:36:57.232Z,100672.66
2023-03-02T16:39:24.677Z,100670.97
2023-03-02T16:41:51.785Z,100675.03
2023-03-02T16:44:19.067Z,100670.56
2023-03-02T16:46:45.942Z,100673.88
2023-03-02T16:49:13.809Z,100671.00
2023-03-02T16:51:41.547Z,100668.34
2023-03-02T16:54:08.527Z,100674.22
2023-03-02T16:56:35.432Z,100673.31
2023-03-02T16:59:02.317Z,100673.31
2023-03-02T17:01:29.436Z,100677.66
2023-03-02T17:03:56.794Z,100674.34
2023-03-02T17:06:24.079Z,100676.16
2023-03-02T17:08:51.401Z,100678.03
2023-03-02T17:11:19.105Z,100684.03
2023-03-02T17:13:46.179Z,100671.88
2023-03-02T17:16:13.791Z,100693.00
2023-03-02T17:18:41.151Z,100687.59
2023-03-02T17:21:08.384Z,100679.72
2023-03-02T17:23:37.100Z,100674.63
2023-03-02T17:26:04.494Z,100673.81
2023-03-02T17:28:31.456Z,100665.38
2023-03-02T17:30:59.607Z,100666.25
2023-03-02T17:33:26.699Z,100674.75
2023-03-02T17:35:53.543Z,100668.00
2023-03-02T17:38:20.625Z,100671.44
2023-03-02T17:40:48.043Z,100671.19
2023-03-02T17:43:14.957Z,100678.00
2023-03-02T17:45:41.796Z,100671.94
2023-03-02T17:48:08.680Z,100683.88
2023-03-02T17:50:35.689Z,100667.66
2023-03-02T17:53:03.111Z,100660.13
2023-03-02T17:55:30.195Z,100658.41
2023-03-02T17:57:57.336Z,100655.91
2023-03-02T18:00:24.820Z,100664.56
2023-03-02T18:02:54.202Z,100657.69
2023-03-02T18:05:22.711Z,100662.00
2023-03-02T18:07:51.937Z,100658.59
2023-03-02T18:10:20.775Z,100665.44
2023-03-02T18:12:48.515Z,100673.94
2023-03-02T18:15:16.510Z,100662.03
2023-03-02T18:17:44.288Z,100655.97
2023-03-02T18:20:13.028Z,100658.22
2023-03-02T18:22:47.493Z,100658.31
2023-03-02T18:25:18.564Z,100648.97
2023-03-02T18:27:47.494Z,100645.53
2023-03-02T18:30:16.121Z,100644.59
2023-03-02T18:32:43.971Z,100635.06
2023-03-02T18:35:11.648Z,100634.91
2023-03-02T18:37:39.074Z,100630.47
2023-03-02T18:40:08.029Z,100638.94
2023-03-02T18:42:36.219Z,100642.44
2023-03-02T18:45:05.352Z,100650.25
2023-03-02T18:47:34.881Z,100645.22
2023-03-02T18:50:02.558Z,100657.25
2023-03-02T18:52:29.938Z,100647.09
2023-03-02T18:54:57.901Z,100651.50
2023-03-02T18:57:25.701Z,100649.66
2023-03-02T18:59:52.598Z,100651.53
2023-03-02T19:02:19.580Z,100651.59
2023-03-02T19:04:47.024Z,100653.28
2023-03-02T19:07:13.986Z,100653.28
2023-03-02T19:09:40.819Z,100643.97
2023-03-02T19:12:08.007Z,100648.34
2023-03-02T19:14:36.897Z,100651.78
2023-03-02T19:17:03.852Z,100648.47
2023-03-02T19:19:31.263Z,100640.69
2023-03-02T19:22:03.082Z,100638.13
2023-03-02T19:24:31.170Z,100630.34
2023-03-02T19:26:58.680Z,100626.91
2023-03-02T19:29:26.609Z,100627.75
2023-03-02T19:31:54.352Z,100620.00
2023-03-02T19:34:23.113Z,100615.63
2023-03-02T19:36:50.192Z,100614.81
2023-03-02T19:39:16.986Z,100607.94
2023-03-02T19:41:44.044Z,100605.38
2023-03-02T19:44:12.746Z,100601.06
2023-03-02T19:46:40.040Z,100607.75
2023-03-02T19:49:07.312Z,100609.31
2023-03-02T19:51:34.259Z,100606.59
2023-03-02T19:54:03.665Z,100608.13
2023-03-02T19:56:34.922Z,100602.13
2023-03-02T19:59:01.874Z,100599.56
2023-03-02T20:01:30.042Z,100610.69
2023-03-02T20:04:01.100Z,100601.41
2023-03-02T20:06:31.998Z,100587.06
2023-03-02T20:09:01.406Z,100591.38
2023-03-02T20:11:30.752Z,100592.91
2023-03-02T20:14:02.398Z,100594.53
2023-03-02T20:16:31.238Z,100580.00
2023-03-02T20:19:02.030Z,100596.22
2023-03-02T20:21:30.415Z,100595.22
2023-03-02T20:23:57.654Z,100600.44
2023-03-02T20:26:25.652Z,100589.03
2023-03-02T20:28:55.903Z,100586.41
2023-03-02T20:31:24.960Z,100592.38
2023-03-02T20:33:56.890Z,100575.94
2023-03-02T20:36:30.014Z,100562.97
2023-03-02T20:39:07.164Z,100577.56
2023-03-02T20:41:34.535Z,100573.38
2023-03-02T20:44:01.498Z,100577.69
2023-03-02T20:46:34.177Z,100575.88
2023-03-02T20:49:01.596Z,100582.69
2023-03-02T20:51:28.772Z,100582.56
2023-03-02T20:53:55.724Z,100588.34
2023-03-02T20:56:22.687Z,100586.53
2023-03-02T20:58:50.053Z,100583.88
2023-03-02T21:01:18.525Z,100579.63
2023-03-02T21:03:45.483Z,100581.41
2023-03-02T21:06:13.581Z,100570.38
2023-03-02T21:08:41.072Z,100576.34
2023-03-02T21:11:09.653Z,100580.53
2023-03-02T21:13:38.912Z,100587.31
2023-03-02T21:16:07.438Z,100584.75
2023-03-02T21:18:34.873Z,100575.47
2023-03-02T21:21:02.773Z,100577.22
2023-03-02T21:23:30.066Z,100584.03
2023-03-02T21:25:57.435Z,100596.03
2023-03-02T21:28:24.316Z,100589.03
2023-03-02T21:30:51.290Z,100582.19
2023-03-02T21:33:18.255Z,100573.53
2023-03-02T21:35:46.503Z,100575.28
2023-03-02T21:38:14.765Z,100573.63
2023-03-02T21:40:46.038Z,100551.41
2023-03-02T21:43:14.262Z,100544.56
2023-03-02T21:45:41.963Z,100552.94
2023-03-02T21:48:09.027Z,100548.47
2023-03-02T21:50:38.065Z,100542.41
2023-03-02T21:53:05.693Z,100531.34
2023-03-02T21:55:33.290Z,100525.34
2023-03-02T21:58:00.416Z,100521.09
2023-03-02T22:00:30.841Z,100520.16
2023-03-02T22:02:57.748Z,100516.69
2023-03-02T22:05:25.717Z,100520.84
2023-03-02T22:07:52.669Z,100525.06
2023-03-02T22:10:31.964Z,100519.84
2023-03-02T22:13:17.457Z,100533.47
2023-03-02T22:15:45.756Z,100518.88
2023-03-02T22:18:18.167Z,100528.25
2023-03-02T22:20:47.587Z,100526.63
2023-03-02T22:23:21.211Z,100510.25
2023-03-02T22:25:53.317Z,100498.88
2023-03-02T22:28:26.116Z,100489.41
2023-03-02T22:30:57.674Z,100498.84
2023-03-02T22:33:27.065Z,100489.50
2023-03-02T22:36:04.989Z,100489.47
2023-03-02T22:38:31.925Z,100481.59
2023-03-02T22:40:58.828Z,100484.75
2023-03-02T22:43:33.160Z,100482.19
2023-03-02T22:46:15.963Z,100481.41
2023-03-02T22:48:46.441Z,100484.09
2023-03-02T22:51:20.302Z,100480.84
2023-03-02T22:53:58.800Z,100492.78
2023-03-02T22:56:40.783Z,100477.28
2023-03-02T22:59:24.868Z,100467.00
2023-03-02T23:01:54.130Z,100451.25
2023-03-02T23:04:23.945Z,100440.97
2023-03-02T23:06:55.661Z,100451.88
2023-03-02T23:09:23.572Z,100441.00
2023-03-02T23:11:51.149Z,100435.06
2023-03-02T23:14:27.565Z,100434.97
2023-03-02T23:17:00.480Z,100430.53
2023-03-02T23:19:30.130Z,100432.09
2023-03-02T23:21:58.081Z,100439.78
2023-03-02T23:24:25.202Z,100432.09
2023-03-02T23:26:52.550Z,100445.03
2023-03-02T23:29:20.011Z,100433.97
2023-03-02T23:31:47.454Z,100437.34
2023-03-02T23:34:14.348Z,100429.66
2023-03-02T23:36:41.560Z,100430.41
2023-03-02T23:39:09.497Z,100442.22
2023-03-02T23:41:37.170Z,100451.34
2023-03-02T23:44:04.922Z,100451.34
2023-03-02T23:46:31.923Z,100457.06
2023-03-02T23:48:59.035Z,100459.59
2023-03-02T23:51:26.405Z,100460.53
2023-03-02T23:53:54.220Z,100455.41
2023-03-02T23:56:21.354Z,100457.16
2023-03-02T23:58:48.188Z,100454.53
